Time;durP1;ratioP1;P1;durP2;ratioP2;P2;SDS_P1;SDS_P2;PMS_P1;PMS_P2;Temp;Humidity;BMP_temperature;BMP_pressure;BME280_temperature;BME280_humidity;BME280_pressure;Samples;Min_cycle;Max_cycle;Signal;HPM_P1;HPM_P2
2022/02/18 00:00:20;;;;;;;4.07;1.80;;;;;;;;;;4971491;28;20049;-61
2022/02/18 00:02:45;;;;;;;7.18;1.92;;;;;;;;;;4971338;28;20452;-62
2022/02/18 00:05:11;;;;;;;5.43;1.85;;;;;;;;;;4971419;28;20512;-61
2022/02/18 00:07:36;;;;;;;4.57;1.60;;;;;;;;;;4971510;28;20060;-62
2022/02/18 00:10:02;;;;;;;4.20;1.73;;;;;;;;;;4971429;28;20518;-62
2022/02/18 00:12:27;;;;;;;5.22;2.03;;;;;;;;;;4971069;28;20089;-62
2022/02/18 00:14:53;;;;;;;6.18;1.92;;;;;;;;;;4972231;28;20048;-62
2022/02/18 00:17:18;;;;;;;7.30;1.63;;;;;;;;;;4971938;28;20425;-61
2022/02/18 00:19:43;;;;;;;3.85;1.60;;;;;;;;;;4971486;28;20492;-61
2022/02/18 00:22:09;;;;;;;3.45;1.30;;;;;;;;;;4971202;28;20306;-62
2022/02/18 00:24:34;;;;;;;4.55;1.48;;;;;;;;;;4971075;28;20033;-61
2022/02/18 00:26:59;;;;;;;2.65;1.13;;;;;;;;;;4970880;28;20456;-62
2022/02/18 00:29:25;;;;;;;4.13;1.40;;;;;;;;;;4972670;28;20490;-61
2022/02/18 00:31:50;;;;;;;6.40;1.70;;;;;;;;;;4971309;28;20415;-62
2022/02/18 00:34:15;;;;;;;4.50;1.48;;;;;;;;;;4971051;28;20029;-61
2022/02/18 00:36:41;;;;;;;6.90;1.73;;;;;;;;;;4972288;28;20436;-62
2022/02/18 00:39:06;;;;;;;5.57;1.48;;;;;;;;;;4971494;28;20387;-62
2022/02/18 00:41:31;;;;;;;2.97;1.25;;;;;;;;;;4971689;28;20492;-61
2022/02/18 00:43:57;;;;;;;3.45;1.58;;;;;;;;;;4970756;28;20091;-62
2022/02/18 00:46:22;;;;;;;3.10;1.90;;;;;;;;;;4970673;28;20330;-61
2022/02/18 00:48:48;;;;;;;6.18;2.05;;;;;;;;;;4970991;28;20503;-62
2022/02/18 00:51:13;;;;;;;3.97;1.60;;;;;;;;;;4970692;28;20436;-62
2022/02/18 00:53:38;;;;;;;3.55;1.30;;;;;;;;;;4970464;28;20317;-61
2022/02/18 00:56:04;;;;;;;4.45;1.42;;;;;;;;;;4971415;28;20044;-61
2022/02/18 00:58:29;;;;;;;2.95;1.13;;;;;;;;;;4970490;28;20034;-62
2022/02/18 01:00:55;;;;;;;5.70;1.70;;;;;;;;;;4974172;28;20424;-61
2022/02/18 01:03:20;;;;;;;2.95;1.30;;;;;;;;;;4977163;28;20408;-61
2022/02/18 01:05:47;;;;;;;2.95;1.30;;;;;;;;;;4969795;28;20562;-61
2022/02/18 01:08:13;;;;;;;3.65;1.30;;;;;;;;;;4971661;28;20033;-62
2022/02/18 01:10:38;;;;;;;6.68;2.00;;;;;;;;;;4970588;28;20429;-62
2022/02/18 01:13:03;;;;;;;3.33;1.00;;;;;;;;;;4970694;28;20348;-61
2022/02/18 01:15:28;;;;;;;2.65;1.30;;;;;;;;;;4970555;28;20496;-62
2022/02/18 01:17:54;;;;;;;3.10;1.08;;;;;;;;;;4970474;28;20337;-62
2022/02/18 01:20:20;;;;;;;5.30;1.55;;;;;;;;;;4970888;28;20352;-62
2022/02/18 01:22:45;;;;;;;1.90;1.10;;;;;;;;;;4970507;28;20435;-62
2022/02/18 01:25:11;;;;;;;2.22;1.20;;;;;;;;;;4971266;28;20442;-61
2022/02/18 01:27:39;;;;;;;2.88;1.08;;;;;;;;;;4970612;28;20333;-61
2022/02/18 01:30:05;;;;;;;2.33;1.08;;;;;;;;;;4970259;28;20348;-62
2022/02/18 01:32:31;;;;;;;4.43;1.02;;;;;;;;;;4953420;28;20417;-61
2022/02/18 01:34:58;;;;;;;5.18;1.27;;;;;;;;;;4950356;28;20392;-62
2022/02/18 01:37:24;;;;;;;5.70;1.42;;;;;;;;;;4950856;28;20357;-62
2022/02/18 01:39:49;;;;;;;3.75;1.15;;;;;;;;;;4950006;28;20429;-62
2022/02/18 01:42:14;;;;;;;3.33;1.25;;;;;;;;;;4950254;28;20420;-63
2022/02/18 01:44:42;;;;;;;4.35;1.15;;;;;;;;;;4949986;28;20426;-62
2022/02/18 01:47:13;;;;;;;3.53;1.30;;;;;;;;;;4950523;28;20429;-62
2022/02/18 01:49:39;;;;;;;2.83;0.80;;;;;;;;;;4950009;28;20348;-62
2022/02/18 01:52:05;;;;;;;2.72;1.10;;;;;;;;;;4950836;28;20361;-62
2022/02/18 01:54:31;;;;;;;2.53;0.73;;;;;;;;;;4950418;28;20440;-61
2022/02/18 01:56:56;;;;;;;3.88;1.02;;;;;;;;;;4948748;28;20334;-62
2022/02/18 01:59:21;;;;;;;5.25;1.48;;;;;;;;;;4951138;28;20499;-62
2022/02/18 02:01:47;;;;;;;2.47;1.27;;;;;;;;;;4949957;28;20335;-62
2022/02/18 02:04:12;;;;;;;1.55;1.00;;;;;;;;;;4950235;28;20460;-62
2022/02/18 02:06:38;;;;;;;1.20;0.70;;;;;;;;;;4950076;28;20565;-62
2022/02/18 02:09:04;;;;;;;1.45;0.70;;;;;;;;;;4949726;28;20533;-62
2022/02/18 02:11:29;;;;;;;3.30;1.20;;;;;;;;;;4949649;28;20437;-61
2022/02/18 02:13:54;;;;;;;1.75;1.00;;;;;;;;;;4951793;28;20034;-62
2022/02/18 02:16:20;;;;;;;3.40;1.33;;;;;;;;;;4948355;28;20117;-62
2022/02/18 02:18:45;;;;;;;1.45;1.20;;;;;;;;;;4949885;28;20448;-62
2022/02/18 02:21:12;;;;;;;0.88;0.70;;;;;;;;;;4950020;28;20056;-61
2022/02/18 02:23:37;;;;;;;2.97;1.00;;;;;;;;;;4949613;28;20385;-62
2022/02/18 02:26:11;;;;;;;5.57;1.23;;;;;;;;;;4949427;28;20408;-61
2022/02/18 02:28:36;;;;;;;7.22;1.38;;;;;;;;;;4949494;28;20030;-62
2022/02/18 02:31:02;;;;;;;2.75;1.08;;;;;;;;;;4950694;28;20452;-62
2022/02/18 02:33:27;;;;;;;4.63;0.95;;;;;;;;;;4949470;28;20487;-61
2022/02/18 02:35:52;;;;;;;3.70;0.88;;;;;;;;;;4949634;28;20380;-62
2022/02/18 02:38:19;;;;;;;2.05;0.57;;;;;;;;;;4950392;28;20485;-62
2022/02/18 02:40:45;;;;;;;2.13;0.75;;;;;;;;;;4949743;28;20475;-62
2022/02/18 02:43:10;;;;;;;4.75;0.90;;;;;;;;;;4949375;28;20438;-62
2022/02/18 02:45:36;;;;;;;3.45;1.13;;;;;;;;;;4949532;28;20380;-61
2022/02/18 02:48:01;;;;;;;4.00;0.82;;;;;;;;;;4949803;28;20399;-62
2022/02/18 02:50:27;;;;;;;2.25;0.80;;;;;;;;;;4949715;28;20373;-61
2022/02/18 02:52:52;;;;;;;1.70;0.70;;;;;;;;;;4949396;28;20497;-62
2022/02/18 02:55:17;;;;;;;4.60;0.75;;;;;;;;;;4949943;28;20567;-62
2022/02/18 02:57:44;;;;;;;4.97;0.95;;;;;;;;;;4949414;28;20018;-62
2022/02/18 03:00:11;;;;;;;1.33;0.68;;;;;;;;;;4949541;28;20464;-61
2022/02/18 03:02:36;;;;;;;1.58;0.75;;;;;;;;;;4950399;28;20372;-62
2022/02/18 03:05:02;;;;;;;1.60;0.80;;;;;;;;;;4949001;28;20061;-61
2022/02/18 03:07:27;;;;;;;4.20;1.25;;;;;;;;;;4949717;28;20322;-62
2022/02/18 03:09:52;;;;;;;3.15;0.80;;;;;;;;;;4949147;28;20029;-62
2022/02/18 03:12:17;;;;;;;2.05;0.70;;;;;;;;;;4949497;28;20418;-62
2022/02/18 03:14:43;;;;;;;3.53;0.80;;;;;;;;;;4949518;28;20507;-62
2022/02/18 03:17:08;;;;;;;2.88;0.95;;;;;;;;;;4949503;28;20460;-62
2022/02/18 03:19:34;;;;;;;1.60;0.80;;;;;;;;;;4951324;28;20329;-62
2022/02/18 03:21:59;;;;;;;4.40;0.90;;;;;;;;;;4952745;28;20345;-61
2022/02/18 03:24:25;;;;;;;3.17;0.95;;;;;;;;;;4952852;28;20322;-61
2022/02/18 03:26:50;;;;;;;2.60;0.90;;;;;;;;;;4953024;28;20358;-61
2022/02/18 03:29:17;;;;;;;2.75;1.25;;;;;;;;;;4952866;28;20026;-62
2022/02/18 03:31:42;;;;;;;1.33;0.70;;;;;;;;;;4952792;28;20509;-62
2022/02/18 03:34:07;;;;;;;2.72;0.57;;;;;;;;;;4952300;28;20372;-61
2022/02/18 03:36:32;;;;;;;3.10;0.90;;;;;;;;;;4952614;28;20091;-62
2022/02/18 03:38:58;;;;;;;0.90;0.55;;;;;;;;;;4953462;28;20433;-63
2022/02/18 03:41:26;;;;;;;1.98;1.02;;;;;;;;;;4953008;28;20380;-62
2022/02/18 03:43:52;;;;;;;6.47;1.10;;;;;;;;;;4952212;28;20441;-62
2022/02/18 03:46:17;;;;;;;0.98;0.60;;;;;;;;;;4952628;28;20459;-62
2022/02/18 03:48:42;;;;;;;1.75;0.70;;;;;;;;;;4952272;28;20459;-62
2022/02/18 03:51:08;;;;;;;1.25;0.60;;;;;;;;;;4952565;28;20519;-62
2022/02/18 03:53:33;;;;;;;3.22;1.30;;;;;;;;;;4952595;28;20322;-63
2022/02/18 03:55:59;;;;;;;4.72;0.90;;;;;;;;;;4952189;28;20388;-62
2022/02/18 03:58:26;;;;;;;1.70;0.93;;;;;;;;;;4952478;28;20444;-62
2022/02/18 04:00:51;;;;;;;2.88;1.50;;;;;;;;;;4953034;28;20370;-62
2022/02/18 04:03:16;;;;;;;1.63;0.70;;;;;;;;;;4952127;28;20440;-62
2022/02/18 04:05:41;;;;;;;6.88;1.27;;;;;;;;;;4952511;28;20388;-62
2022/02/18 04:08:07;;;;;;;1.58;0.73;;;;;;;;;;4953089;28;20452;-63
2022/02/18 04:10:32;;;;;;;3.85;1.30;;;;;;;;;;4952141;28;20364;-63
2022/02/18 04:12:58;;;;;;;3.72;0.95;;;;;;;;;;4951931;28;20026;-62
2022/02/18 04:15:23;;;;;;;2.38;0.70;;;;;;;;;;4953325;28;20392;-62
2022/02/18 04:17:48;;;;;;;2.42;1.00;;;;;;;;;;4951722;28;20457;-62
2022/02/18 04:20:14;;;;;;;3.92;0.70;;;;;;;;;;4951648;28;20030;-62
2022/02/18 04:22:39;;;;;;;2.67;0.85;;;;;;;;;;4951891;28;20464;-62
2022/02/18 04:25:05;;;;;;;2.90;1.00;;;;;;;;;;4952220;28;20348;-62
2022/02/18 04:27:30;;;;;;;4.80;1.20;;;;;;;;;;4951037;28;20449;-62
2022/02/18 04:29:56;;;;;;;3.25;0.95;;;;;;;;;;4951844;28;20491;-62
2022/02/18 04:32:21;;;;;;;1.45;1.13;;;;;;;;;;4951067;28;20457;-62
2022/02/18 04:34:46;;;;;;;1.45;0.70;;;;;;;;;;4951655;28;20141;-62
2022/02/18 04:37:12;;;;;;;3.00;0.85;;;;;;;;;;4951294;28;20344;-62
2022/02/18 04:39:37;;;;;;;1.90;0.45;;;;;;;;;;4951656;28;20457;-62
2022/02/18 04:42:03;;;;;;;3.20;0.77;;;;;;;;;;4952201;28;20520;-62
2022/02/18 04:44:28;;;;;;;1.30;0.80;;;;;;;;;;4933830;28;20425;-62
2022/02/18 04:46:53;;;;;;;3.25;0.82;;;;;;;;;;4950952;28;20532;-62
2022/02/18 04:49:18;;;;;;;2.35;0.93;;;;;;;;;;4951817;28;20528;-62
2022/02/18 04:51:44;;;;;;;4.07;0.88;;;;;;;;;;4951328;28;20511;-62
2022/02/18 04:54:09;;;;;;;3.85;0.80;;;;;;;;;;4951504;28;20433;-63
2022/02/18 04:56:35;;;;;;;2.15;1.08;;;;;;;;;;4951959;28;20457;-62
2022/02/18 04:59:01;;;;;;;2.47;0.60;;;;;;;;;;4952018;28;20433;-62
2022/02/18 05:01:26;;;;;;;3.67;0.80;;;;;;;;;;4950911;28;20433;-62
2022/02/18 05:03:52;;;;;;;4.40;1.70;;;;;;;;;;4951207;28;20030;-62
2022/02/18 05:06:18;;;;;;;2.75;0.70;;;;;;;;;;4950154;28;20465;-63
2022/02/18 05:08:44;;;;;;;3.15;0.90;;;;;;;;;;4951889;28;20487;-62
2022/02/18 05:11:10;;;;;;;1.67;0.82;;;;;;;;;;4951357;28;20471;-62
2022/02/18 05:13:35;;;;;;;3.88;0.90;;;;;;;;;;4950874;28;20441;-61
2022/02/18 05:16:01;;;;;;;3.55;0.93;;;;;;;;;;4950940;28;20385;-62
2022/02/18 05:18:26;;;;;;;2.58;1.27;;;;;;;;;;4950943;28;20416;-62
2022/02/18 05:20:52;;;;;;;2.60;0.98;;;;;;;;;;4965417;28;20030;-62
2022/02/18 05:23:17;;;;;;;1.00;0.70;;;;;;;;;;4950541;28;20492;-63
2022/02/18 05:25:42;;;;;;;1.45;0.75;;;;;;;;;;4951920;28;20439;-62
2022/02/18 05:28:08;;;;;;;2.85;0.75;;;;;;;;;;4951944;28;20420;-62
2022/02/18 05:30:34;;;;;;;3.58;0.93;;;;;;;;;;4950662;28;20369;-62
2022/02/18 05:33:01;;;;;;;2.15;0.90;;;;;;;;;;4950230;28;20503;-62
2022/02/18 05:35:26;;;;;;;4.30;1.52;;;;;;;;;;4950601;28;20030;-62
2022/02/18 05:37:51;;;;;;;4.78;0.90;;;;;;;;;;4950263;28;20438;-62
2022/02/18 05:40:17;;;;;;;1.85;0.55;;;;;;;;;;4950570;28;20456;-62
2022/02/18 05:42:42;;;;;;;1.58;0.93;;;;;;;;;;4951065;28;20342;-61
2022/02/18 05:45:08;;;;;;;2.55;1.10;;;;;;;;;;4949177;28;20456;-62
2022/02/18 05:47:34;;;;;;;0.80;0.50;;;;;;;;;;4949830;28;20353;-62
2022/02/18 05:50:02;;;;;;;2.60;1.00;;;;;;;;;;4950650;28;20365;-61
2022/02/18 05:52:27;;;;;;;2.15;0.75;;;;;;;;;;4949938;28;20422;-62
2022/02/18 05:54:53;;;;;;;1.20;0.55;;;;;;;;;;4950955;28;20418;-62
2022/02/18 05:57:18;;;;;;;2.88;1.13;;;;;;;;;;4949976;28;20451;-62
2022/02/18 05:59:43;;;;;;;3.40;1.17;;;;;;;;;;4950972;28;20109;-62
2022/02/18 06:02:08;;;;;;;5.05;0.90;;;;;;;;;;4950180;28;20417;-62
2022/02/18 06:04:34;;;;;;;3.38;1.20;;;;;;;;;;4950914;28;20471;-62
2022/02/18 06:06:59;;;;;;;2.08;1.08;;;;;;;;;;4950287;28;20457;-62
2022/02/18 06:09:24;;;;;;;1.33;0.82;;;;;;;;;;4950616;28;20422;-62
2022/02/18 06:11:50;;;;;;;2.33;0.88;;;;;;;;;;4950493;28;20045;-62
2022/02/18 06:14:15;;;;;;;1.27;0.77;;;;;;;;;;4950955;28;20518;-62
2022/02/18 06:16:40;;;;;;;4.70;1.30;;;;;;;;;;4950094;28;20476;-62
2022/02/18 06:19:07;;;;;;;2.85;0.80;;;;;;;;;;4949509;28;20516;-62
2022/02/18 06:21:33;;;;;;;3.33;1.17;;;;;;;;;;4949732;28;20088;-62
2022/02/18 06:23:58;;;;;;;2.25;0.90;;;;;;;;;;4949773;28;20500;-62
2022/02/18 06:26:23;;;;;;;1.63;1.00;;;;;;;;;;4949556;28;20401;-62
2022/02/18 06:28:49;;;;;;;2.30;0.90;;;;;;;;;;4949686;28;20437;-62
2022/02/18 06:31:16;;;;;;;3.53;0.88;;;;;;;;;;4949473;28;20433;-61
2022/02/18 06:33:45;;;;;;;1.98;1.10;;;;;;;;;;4950178;28;20387;-62
2022/02/18 06:36:10;;;;;;;4.03;0.95;;;;;;;;;;4949655;28;20114;-62
2022/02/18 06:38:35;;;;;;;1.98;0.80;;;;;;;;;;4949395;28;20541;-61
2022/02/18 06:41:01;;;;;;;1.70;1.02;;;;;;;;;;4951477;28;20022;-62
2022/02/18 06:43:26;;;;;;;2.35;1.00;;;;;;;;;;4949964;28;20455;-62
2022/02/18 06:45:51;;;;;;;2.63;0.80;;;;;;;;;;4949453;28;20365;-62
2022/02/18 06:48:17;;;;;;;3.45;1.35;;;;;;;;;;4949737;28;20330;-63
2022/02/18 06:50:42;;;;;;;1.60;0.98;;;;;;;;;;4950537;28;20508;-62
2022/02/18 06:53:07;;;;;;;1.38;0.82;;;;;;;;;;4948929;28;20353;-62
2022/02/18 06:55:33;;;;;;;2.63;1.15;;;;;;;;;;4952255;28;20108;-62
2022/02/18 06:58:01;;;;;;;2.85;1.02;;;;;;;;;;4953882;28;20370;-62
2022/02/18 07:00:27;;;;;;;4.28;1.33;;;;;;;;;;4953013;28;20034;-62
2022/02/18 07:02:53;;;;;;;3.50;1.33;;;;;;;;;;4952994;28;20030;-62
2022/02/18 07:05:19;;;;;;;1.95;0.88;;;;;;;;;;4952557;28;20443;-62
2022/02/18 07:07:44;;;;;;;1.75;1.10;;;;;;;;;;4952853;28;20353;-62
2022/02/18 07:10:11;;;;;;;5.47;1.50;;;;;;;;;;4953466;28;20316;-62
2022/02/18 07:12:38;;;;;;;2.97;1.55;;;;;;;;;;4953108;28;20496;-62
2022/02/18 07:15:04;;;;;;;4.68;1.05;;;;;;;;;;4953054;28;20456;-62
2022/02/18 07:17:30;;;;;;;2.95;1.17;;;;;;;;;;4952427;28;20330;-62
2022/02/18 07:19:56;;;;;;;1.45;0.98;;;;;;;;;;4952656;28;20381;-62
2022/02/18 07:22:22;;;;;;;2.63;0.90;;;;;;;;;;4952840;28;20432;-62
2022/02/18 07:24:49;;;;;;;2.13;0.75;;;;;;;;;;4953012;28;20385;-62
2022/02/18 07:27:14;;;;;;;1.35;0.90;;;;;;;;;;4952958;28;20419;-62
2022/02/18 07:29:40;;;;;;;2.35;0.93;;;;;;;;;;4954418;28;20033;-62
2022/02/18 07:32:07;;;;;;;2.88;0.98;;;;;;;;;;4952225;28;20388;-62
2022/02/18 07:34:32;;;;;;;4.13;1.85;;;;;;;;;;4952052;28;20553;-63
2022/02/18 07:36:58;;;;;;;4.00;1.02;;;;;;;;;;4952036;28;20368;-62
2022/02/18 07:39:23;;;;;;;1.95;1.10;;;;;;;;;;4953041;28;20140;-61
2022/02/18 07:41:49;;;;;;;4.28;1.13;;;;;;;;;;4952526;28;20029;-62
2022/02/18 07:44:14;;;;;;;4.95;1.50;;;;;;;;;;4952203;28;20445;-62
2022/02/18 07:46:40;;;;;;;2.97;1.00;;;;;;;;;;4951862;28;20522;-62
2022/02/18 07:49:05;;;;;;;1.95;1.00;;;;;;;;;;4952472;28;20116;-62
2022/02/18 07:51:30;;;;;;;1.83;1.20;;;;;;;;;;4952698;28;20315;-62
2022/02/18 07:53:56;;;;;;;2.47;0.70;;;;;;;;;;4952379;28;20385;-62
2022/02/18 07:56:21;;;;;;;2.67;1.15;;;;;;;;;;4953656;28;20337;-63
2022/02/18 07:58:46;;;;;;;3.55;1.17;;;;;;;;;;4952938;28;20364;-62
2022/02/18 08:01:17;;;;;;;8.25;1.70;;;;;;;;;;4952078;28;20383;-62
2022/02/18 08:03:43;;;;;;;5.78;0.95;;;;;;;;;;4951765;28;20065;-62
2022/02/18 08:06:08;;;;;;;0.77;0.70;;;;;;;;;;4950923;28;20572;-62
2022/02/18 08:08:36;;;;;;;1.77;0.80;;;;;;;;;;4951413;28;20453;-62
2022/02/18 08:11:03;;;;;;;4.53;1.42;;;;;;;;;;4951959;28;20496;-62
2022/02/18 08:13:29;;;;;;;4.20;1.10;;;;;;;;;;4952083;28;20468;-62
2022/02/18 08:15:54;;;;;;;4.45;1.27;;;;;;;;;;4952835;28;20442;-62
2022/02/18 08:18:20;;;;;;;2.78;1.40;;;;;;;;;;4952863;28;20440;-62
2022/02/18 08:20:46;;;;;;;4.20;1.42;;;;;;;;;;4953055;28;20525;-62
2022/02/18 08:23:11;;;;;;;2.83;0.98;;;;;;;;;;4953196;28;20345;-63
2022/02/18 08:25:37;;;;;;;3.30;1.17;;;;;;;;;;4951896;28;20412;-62
2022/02/18 08:28:02;;;;;;;3.72;1.38;;;;;;;;;;4951181;28;20441;-62
2022/02/18 08:30:27;;;;;;;2.17;1.00;;;;;;;;;;4952660;28;20452;-62
2022/02/18 08:32:53;;;;;;;2.35;0.98;;;;;;;;;;4951770;28;20336;-62
2022/02/18 08:35:18;;;;;;;2.22;0.82;;;;;;;;;;4951922;28;20372;-63
2022/02/18 08:37:43;;;;;;;2.92;1.05;;;;;;;;;;4951433;28;20483;-62
2022/02/18 08:40:09;;;;;;;3.22;1.25;;;;;;;;;;4950785;28;20042;-62
2022/02/18 08:42:34;;;;;;;3.92;1.30;;;;;;;;;;4951888;28;20068;-62
2022/02/18 08:45:00;;;;;;;3.72;1.25;;;;;;;;;;4951217;28;20349;-62
2022/02/18 08:47:25;;;;;;;1.48;0.90;;;;;;;;;;4951934;28;20353;-62
2022/02/18 08:49:51;;;;;;;6.70;1.77;;;;;;;;;;4951307;28;20436;-62
2022/02/18 08:52:16;;;;;;;3.60;1.35;;;;;;;;;;4952589;28;20467;-62
2022/02/18 08:54:41;;;;;;;2.30;1.00;;;;;;;;;;4951157;28;20438;-62
2022/02/18 08:57:07;;;;;;;4.55;1.30;;;;;;;;;;4952234;28;20053;-62
2022/02/18 08:59:32;;;;;;;3.42;1.13;;;;;;;;;;4949639;28;20434;-62
2022/02/18 09:01:58;;;;;;;7.57;1.45;;;;;;;;;;4952039;28;20325;-63
2022/02/18 09:04:23;;;;;;;3.22;1.30;;;;;;;;;;4951136;28;20408;-62
2022/02/18 09:06:49;;;;;;;3.25;1.00;;;;;;;;;;4951459;28;20350;-62
2022/02/18 09:09:14;;;;;;;2.55;1.20;;;;;;;;;;4950753;28;20480;-62
2022/02/18 09:11:40;;;;;;;6.72;1.27;;;;;;;;;;4950788;28;20385;-62
2022/02/18 09:14:06;;;;;;;4.15;1.40;;;;;;;;;;4950576;28;20464;-62
2022/02/18 09:16:31;;;;;;;4.55;1.17;;;;;;;;;;4950451;28;20472;-62
2022/02/18 09:18:57;;;;;;;6.07;1.35;;;;;;;;;;4951827;28;20322;-62
2022/02/18 09:21:22;;;;;;;6.68;1.40;;;;;;;;;;4951289;28;20061;-62
2022/02/18 09:23:47;;;;;;;5.97;1.10;;;;;;;;;;4951204;28;20033;-62
2022/02/18 09:26:13;;;;;;;2.03;1.15;;;;;;;;;;4951579;28;20283;-62
2022/02/18 09:28:38;;;;;;;3.03;1.10;;;;;;;;;;4950080;28;20333;-62
2022/02/18 09:31:03;;;;;;;2.25;1.25;;;;;;;;;;4950652;28;20026;-62
2022/02/18 09:33:29;;;;;;;3.03;1.33;;;;;;;;;;4950131;28;20357;-62
2022/02/18 09:35:55;;;;;;;4.03;1.15;;;;;;;;;;4950485;28;20441;-62
2022/02/18 09:38:20;;;;;;;3.15;1.30;;;;;;;;;;4950857;28;20358;-63
2022/02/18 09:40:46;;;;;;;7.85;1.50;;;;;;;;;;4950315;28;20497;-62
2022/02/18 09:43:12;;;;;;;4.72;1.27;;;;;;;;;;4950131;28;20441;-62
2022/02/18 09:45:38;;;;;;;5.63;1.38;;;;;;;;;;4950272;28;20417;-62
2022/02/18 09:48:04;;;;;;;3.33;1.50;;;;;;;;;;4950137;28;20437;-62
2022/02/18 09:50:30;;;;;;;2.60;1.17;;;;;;;;;;4950564;28;20030;-63
2022/02/18 09:52:55;;;;;;;4.95;1.48;;;;;;;;;;4950141;28;20119;-62
2022/02/18 09:55:21;;;;;;;3.95;1.20;;;;;;;;;;4949904;28;20516;-62
2022/02/18 09:57:53;;;;;;;1.92;0.90;;;;;;;;;;4950326;28;20346;-62
2022/02/18 10:00:19;;;;;;;2.83;1.00;;;;;;;;;;4950059;28;20384;-62
2022/02/18 10:02:45;;;;;;;6.35;1.25;;;;;;;;;;4951216;28;20422;-62
2022/02/18 10:05:10;;;;;;;4.38;1.30;;;;;;;;;;4947930;28;20512;-62
2022/02/18 10:08:10;;;;;;;4.75;1.40;;;;;;;;;;4949404;28;20030;-62
2022/02/18 10:10:37;;;;;;;6.35;1.38;;;;;;;;;;4950467;28;20049;-62
2022/02/18 10:13:03;;;;;;;3.10;1.10;;;;;;;;;;4949453;28;20445;-62
2022/02/18 10:15:29;;;;;;;6.35;1.75;;;;;;;;;;4951315;28;20380;-62
2022/02/18 10:18:00;;;;;;;1.77;0.82;;;;;;;;;;4950262;28;20341;-62
2022/02/18 10:20:28;;;;;;;7.07;1.67;;;;;;;;;;4949582;28;20354;-62
2022/02/18 10:23:02;;;;;;;3.88;1.40;;;;;;;;;;4949884;28;20373;-63
2022/02/18 10:25:32;;;;;;;4.45;1.05;;;;;;;;;;4950263;28;20451;-62
2022/02/18 10:27:58;;;;;;;3.22;1.33;;;;;;;;;;4951760;28;20519;-62
2022/02/18 10:30:28;;;;;;;5.40;2.13;;;;;;;;;;4949276;28;20441;-62
2022/02/18 10:33:10;;;;;;;3.40;1.38;;;;;;;;;;4949471;28;20442;-62
2022/02/18 10:35:36;;;;;;;4.53;1.65;;;;;;;;;;4950346;28;20065;-62
2022/02/18 10:38:02;;;;;;;5.13;1.10;;;;;;;;;;4948034;28;20437;-62
2022/02/18 10:40:28;;;;;;;5.18;1.00;;;;;;;;;;4947739;28;20437;-62
2022/02/18 10:42:54;;;;;;;2.45;0.98;;;;;;;;;;4950321;28;20451;-62
2022/02/18 10:45:26;;;;;;;4.25;1.00;;;;;;;;;;4948999;28;20437;-62
2022/02/18 10:48:06;;;;;;;1.73;0.90;;;;;;;;;;4949227;28;20029;-62
2022/02/18 10:50:31;;;;;;;2.28;1.15;;;;;;;;;;4950311;28;20448;-63
2022/02/18 10:53:16;;;;;;;4.28;1.50;;;;;;;;;;4949623;28;20583;-62
2022/02/18 10:55:58;;;;;;;4.95;1.73;;;;;;;;;;4949711;28;20358;-63
2022/02/18 10:58:28;;;;;;;3.75;1.02;;;;;;;;;;4949401;28;20461;-63
2022/02/18 11:01:07;;;;;;;1.73;0.82;;;;;;;;;;4949034;28;20451;-63
2022/02/18 11:03:33;;;;;;;4.53;1.35;;;;;;;;;;4949536;28;20034;-62
2022/02/18 11:06:32;;;;;;;3.70;2.38;;;;;;;;;;4948683;28;20457;-64
2022/02/18 11:09:03;;;;;;;4.03;1.20;;;;;;;;;;4949508;28;20369;-62
2022/02/18 11:11:39;;;;;;;3.33;1.02;;;;;;;;;;4949009;28;20057;-62
2022/02/18 11:14:13;;;;;;;3.70;1.02;;;;;;;;;;4949189;28;20500;-62
2022/02/18 11:16:40;;;;;;;5.13;1.33;;;;;;;;;;4949188;28;20088;-62
2022/02/18 11:19:05;;;;;;;4.72;1.20;;;;;;;;;;4949166;28;20461;-62
2022/02/18 11:21:31;;;;;;;3.80;1.30;;;;;;;;;;4949803;28;20400;-62
2022/02/18 11:23:59;;;;;;;3.10;1.20;;;;;;;;;;4948886;28;20450;-62
2022/02/18 11:26:26;;;;;;;3.78;1.20;;;;;;;;;;4949077;28;20438;-62
2022/02/18 11:28:53;;;;;;;4.30;1.63;;;;;;;;;;4948984;28;20386;-62
2022/02/18 11:31:24;;;;;;;3.65;1.77;;;;;;;;;;4949195;28;20484;-62
2022/02/18 11:34:05;;;;;;;4.20;1.45;;;;;;;;;;4949219;28;20369;-62
2022/02/18 11:36:52;;;;;;;3.65;1.40;;;;;;;;;;4949920;28;20038;-62
2022/02/18 11:39:42;;;;;;;4.03;1.40;;;;;;;;;;4949314;28;20460;-62
2022/02/18 11:42:25;;;;;;;3.60;1.20;;;;;;;;;;4948894;28;20350;-62
2022/02/18 11:44:51;;;;;;;6.55;1.73;;;;;;;;;;4953062;28;20309;-62
2022/02/18 11:47:18;;;;;;;5.43;1.30;;;;;;;;;;4952200;28;20321;-62
2022/02/18 11:49:48;;;;;;;8.50;1.80;;;;;;;;;;4952427;28;20430;-62
2022/02/18 11:52:14;;;;;;;;;;;;;;;;;;4952220;28;20464;-62
2022/02/18 11:54:39;;;;;;;3.20;1.33;;;;;;;;;;4952512;28;20340;-62
2022/02/18 11:57:16;;;;;;;4.97;1.50;;;;;;;;;;4952348;28;20487;-62
2022/02/18 11:59:41;;;;;;;3.70;1.38;;;;;;;;;;4952221;28;20341;-62
2022/02/18 12:02:09;;;;;;;7.35;2.13;;;;;;;;;;4954415;28;20318;-62
2022/02/18 12:04:36;;;;;;;7.25;1.30;;;;;;;;;;4952478;28;20386;-62
2022/02/18 12:07:13;;;;;;;3.17;1.52;;;;;;;;;;4951782;28;20482;-63
2022/02/18 12:09:50;;;;;;;5.03;1.85;;;;;;;;;;4951548;28;20418;-63
2022/02/18 12:12:29;;;;;;;6.05;1.38;;;;;;;;;;4951940;28;20468;-62
2022/02/18 12:14:56;;;;;;;4.43;1.42;;;;;;;;;;4952520;28;20357;-62
2022/02/18 12:17:23;;;;;;;4.43;1.27;;;;;;;;;;4952099;28;20446;-62
2022/02/18 12:19:49;;;;;;;2.17;1.40;;;;;;;;;;4950471;28;20380;-62
2022/02/18 12:22:31;;;;;;;4.90;1.55;;;;;;;;;;4951773;28;20029;-62
2022/02/18 12:24:56;;;;;;;4.30;1.70;;;;;;;;;;4953830;28;20436;-63
2022/02/18 12:27:28;;;;;;;5.43;1.98;;;;;;;;;;4951350;28;20088;-62
2022/02/18 12:29:55;;;;;;;5.28;2.05;;;;;;;;;;4951599;28;20353;-64
2022/02/18 12:32:21;;;;;;;6.95;1.95;;;;;;;;;;4951566;28;20033;-63
2022/02/18 12:34:58;;;;;;;7.80;1.88;;;;;;;;;;4953460;28;20408;-62
2022/02/18 12:37:24;;;;;;;8.25;2.10;;;;;;;;;;4951867;28;20481;-62
2022/02/18 12:39:54;;;;;;;8.13;1.63;;;;;;;;;;4951667;28;20373;-62
2022/02/18 12:42:21;;;;;;;6.03;1.80;;;;;;;;;;4951165;28;20348;-62
2022/02/18 12:44:48;;;;;;;4.18;2.10;;;;;;;;;;4951923;28;20429;-63
2022/02/18 12:47:21;;;;;;;6.90;2.33;;;;;;;;;;4951402;28;20491;-62
2022/02/18 12:49:47;;;;;;;4.60;1.60;;;;;;;;;;4951335;28;20299;-62
2022/02/18 12:52:12;;;;;;;7.43;1.88;;;;;;;;;;4950820;28;20048;-62
2022/02/18 12:54:51;;;;;;;7.50;1.95;;;;;;;;;;4951151;28;20426;-63
2022/02/18 12:57:24;;;;;;;4.55;1.75;;;;;;;;;;4951444;28;20345;-62
2022/02/18 12:59:51;;;;;;;4.82;1.60;;;;;;;;;;4950963;28;20477;-62
2022/02/18 13:02:47;;;;;;;3.65;1.70;;;;;;;;;;4951943;28;20325;-62
2022/02/18 13:05:16;;;;;;;4.35;1.77;;;;;;;;;;4950531;28;20389;-62
2022/02/18 13:07:50;;;;;;;3.92;1.45;;;;;;;;;;4950648;28;20433;-62
2022/02/18 13:10:18;;;;;;;3.10;1.48;;;;;;;;;;4950654;28;20315;-62
2022/02/18 13:12:46;;;;;;;7.15;2.13;;;;;;;;;;4951132;28;20378;-62
2022/02/18 13:15:15;;;;;;;7.10;2.25;;;;;;;;;;4949601;28;20368;-63
2022/02/18 13:17:46;;;;;;;5.20;2.22;;;;;;;;;;4951873;28;20458;-62
2022/02/18 13:20:31;;;;;;;7.25;2.28;;;;;;;;;;4950901;28;20492;-63
2022/02/18 13:23:01;;;;;;;3.40;1.65;;;;;;;;;;4950537;28;20034;-62
2022/02/18 13:25:35;;;;;;;5.97;2.00;;;;;;;;;;4950776;28;20537;-62
2022/02/18 13:28:05;;;;;;;3.47;1.55;;;;;;;;;;4950211;28;20100;-62
2022/02/18 13:30:33;;;;;;;3.58;1.77;;;;;;;;;;4950462;28;20061;-63
2022/02/18 13:33:08;;;;;;;6.40;1.90;;;;;;;;;;4950080;28;20030;-63
2022/02/18 13:35:39;;;;;;;5.10;2.00;;;;;;;;;;4950236;28;20519;-62
2022/02/18 13:38:18;;;;;;;6.97;1.98;;;;;;;;;;4950458;28;20369;-63
2022/02/18 13:40:44;;;;;;;5.50;2.13;;;;;;;;;;4950170;28;20424;-63
2022/02/18 13:43:10;;;;;;;5.75;2.50;;;;;;;;;;4950399;28;20523;-62
2022/02/18 13:45:44;;;;;;;10.48;3.80;;;;;;;;;;4948312;28;20477;-62
2022/02/18 13:48:11;;;;;;;6.93;2.80;;;;;;;;;;4949882;28;20446;-63
2022/02/18 13:50:37;;;;;;;6.55;2.50;;;;;;;;;;4950105;28;20501;-62
2022/02/18 13:53:02;;;;;;;8.38;2.67;;;;;;;;;;4948934;28;20516;-62
2022/02/18 13:55:28;;;;;;;8.05;3.40;;;;;;;;;;4948879;28;20334;-63
2022/02/18 13:57:53;;;;;;;7.97;2.90;;;;;;;;;;4950192;28;20484;-62
2022/02/18 14:00:54;;;;;;;7.47;2.90;;;;;;;;;;4949987;28;20340;-62
2022/02/18 14:03:21;;;;;;;10.68;3.13;;;;;;;;;;4908902;28;20334;-62
2022/02/18 14:05:48;;;;;;;8.07;2.65;;;;;;;;;;4940382;28;20439;-62
2022/02/18 14:08:22;;;;;;;8.13;3.05;;;;;;;;;;4949901;28;20390;-62
2022/02/18 14:10:50;;;;;;;6.57;2.72;;;;;;;;;;4949958;28;20456;-62
2022/02/18 14:13:28;;;;;;;6.50;2.72;;;;;;;;;;4949834;28;20368;-62
2022/02/18 14:16:06;;;;;;;5.63;2.47;;;;;;;;;;4950011;28;20536;-63
2022/02/18 14:18:31;;;;;;;5.38;2.30;;;;;;;;;;4950476;28;20421;-62
2022/02/18 14:21:04;;;;;;;6.13;2.50;;;;;;;;;;4949722;28;20480;-62
2022/02/18 14:23:33;;;;;;;5.60;2.25;;;;;;;;;;4949465;28;20524;-63
2022/02/18 14:25:59;;;;;;;8.38;3.20;;;;;;;;;;4949717;28;20118;-62
2022/02/18 14:28:25;;;;;;;5.45;2.78;;;;;;;;;;4949776;28;20429;-62
2022/02/18 14:30:56;;;;;;;6.00;2.90;;;;;;;;;;4949869;28;20333;-62
2022/02/18 14:33:23;;;;;;;6.53;2.88;;;;;;;;;;4950082;28;20034;-62
2022/02/18 14:35:49;;;;;;;6.70;3.30;;;;;;;;;;4950291;28;20553;-63
2022/02/18 14:38:14;;;;;;;5.82;2.63;;;;;;;;;;4949791;28;20533;-62
2022/02/18 14:40:42;;;;;;;8.07;2.80;;;;;;;;;;4950869;28;20330;-62
2022/02/18 14:43:08;;;;;;;4.47;2.35;;;;;;;;;;4949930;28;20460;-62